Time;durP1;ratioP1;P1;durP2;ratioP2;P2;SDS_P1;SDS_P2;PMS_P1;PMS_P2;Temp;Humidity;BMP_temperature;BMP_pressure;BME280_temperature;BME280_humidity;BME280_pressure;Samples;Min_cycle;Max_cycle;Signal;HPM_P1;HPM_P2
2024/01/06 00:02:09;;;;;;;33.47;20.75;;;;;;;18.49;51.62;100166.78;5076213;28;20375;-39
2024/01/06 00:04:36;;;;;;;34.22;21.65;;;;;;;18.49;51.71;100176.53;5075684;28;20055;-39
2024/01/06 00:07:04;;;;;;;35.10;20.88;;;;;;;18.50;51.75;100172.97;5077680;28;20041;-39
2024/01/06 00:09:30;;;;;;;33.97;19.90;;;;;;;18.50;51.61;100167.66;5077910;28;20457;-40
2024/01/06 00:11:57;;;;;;;36.10;20.55;;;;;;;18.49;51.76;100171.25;5074973;28;20028;-39
2024/01/06 00:14:25;;;;;;;37.70;21.10;;;;;;;18.51;51.87;100170.22;5074528;28;20032;-40
2024/01/06 00:16:55;;;;;;;32.60;19.45;;;;;;;18.53;51.85;100183.38;5077027;28;20032;-39
2024/01/06 00:19:23;;;;;;;36.10;21.75;;;;;;;18.52;52.10;100186.97;5075745;28;20036;-39
2024/01/06 00:21:48;;;;;;;35.97;19.83;;;;;;;18.53;52.07;100176.28;5074260;28;20028;-38
2024/01/06 00:24:14;;;;;;;35.47;21.38;;;;;;;18.53;52.30;100180.72;5074611;28;20456;-38
2024/01/06 00:26:39;;;;;;;32.92;19.98;;;;;;;18.52;51.88;100171.09;5074607;28;20032;-39
2024/01/06 00:29:09;;;;;;;34.03;20.02;;;;;;;18.52;52.38;100171.09;5074632;28;20422;-39
2024/01/06 00:31:40;;;;;;;32.60;20.90;;;;;;;18.53;52.62;100164.84;5074709;28;20419;-38
2024/01/06 00:34:05;;;;;;;30.40;18.17;;;;;;;18.53;52.13;100172.78;5074662;28;20020;-39
2024/01/06 00:36:33;;;;;;;31.13;19.13;;;;;;;18.54;52.74;100178.00;5073666;28;20088;-40
2024/01/06 00:38:58;;;;;;;31.25;18.42;;;;;;;18.58;53.00;100176.03;5074461;28;20036;-39
2024/01/06 00:41:24;;;;;;;34.30;20.15;;;;;;;18.48;52.67;100190.72;5074487;28;20021;-39
2024/01/06 00:43:52;;;;;;;30.60;21.05;;;;;;;18.41;52.36;100189.34;5073502;28;20028;-40
2024/01/06 00:46:22;;;;;;;32.30;19.30;;;;;;;18.33;51.61;100190.63;5074532;28;20021;-38
2024/01/06 00:48:49;;;;;;;;;;;;;;;18.20;51.52;100192.22;5062442;28;20538;-38
2024/01/06 00:51:17;;;;;;;36.25;20.20;;;;;;;18.26;51.45;100196.31;5075399;28;19908;-39
2024/01/06 00:53:42;;;;;;;33.67;20.08;;;;;;;18.25;51.14;100195.47;5058222;28;20141;-39
2024/01/06 00:56:07;;;;;;;37.83;22.00;;;;;;;18.25;50.97;100200.75;5075091;28;20404;-40
2024/01/06 00:58:33;;;;;;;31.30;20.23;;;;;;;18.21;50.63;100201.84;5074859;28;20028;-39
2024/01/06 01:00:58;;;;;;;32.10;19.30;;;;;;;18.19;50.81;100198.47;5075222;28;20031;-41
2024/01/06 01:03:24;;;;;;;36.22;20.40;;;;;;;18.19;50.81;100200.22;5074850;28;20078;-41
2024/01/06 01:05:49;;;;;;;29.40;18.55;;;;;;;18.19;50.19;100202.88;5074428;28;20043;-39
2024/01/06 01:08:14;;;;;;;32.85;19.98;;;;;;;18.16;50.32;100201.25;5074556;28;20028;-39
2024/01/06 01:10:40;;;;;;;29.95;18.70;;;;;;;18.15;50.39;100207.50;5074697;28;20062;-40
2024/01/06 01:13:05;;;;;;;29.38;19.85;;;;;;;18.13;50.29;100209.34;5073667;28;20025;-39
2024/01/06 01:15:31;;;;;;;24.88;18.08;;;;;;;18.12;50.29;100215.56;5073854;28;20017;-39
2024/01/06 01:17:56;;;;;;;26.88;18.27;;;;;;;18.11;50.22;100219.16;5073940;28;20025;-39
2024/01/06 01:20:21;;;;;;;27.73;19.52;;;;;;;18.11;50.02;100232.38;5074862;28;20012;-38
2024/01/06 01:22:49;;;;;;;26.70;18.67;;;;;;;18.09;49.86;100227.16;5074747;28;20433;-38
2024/01/06 01:25:17;;;;;;;29.05;19.10;;;;;;;18.09;49.63;100227.16;5073480;28;20089;-39
2024/01/06 01:27:45;;;;;;;29.63;19.60;;;;;;;18.07;49.82;100233.47;5078919;28;20043;-40
2024/01/06 01:30:11;;;;;;;29.38;18.90;;;;;;;18.09;49.68;100226.31;5077508;28;20438;-39
2024/01/06 01:32:37;;;;;;;26.65;18.52;;;;;;;18.07;49.92;100217.59;5077640;28;20032;-39
2024/01/06 01:35:03;;;;;;;30.10;19.23;;;;;;;18.06;49.66;100231.78;5078522;28;20054;-39
2024/01/06 01:37:31;;;;;;;26.65;17.70;;;;;;;18.05;49.43;100225.63;5078489;28;20055;-40
2024/01/06 01:39:56;;;;;;;28.58;19.00;;;;;;;18.06;49.65;100221.19;5077887;28;20103;-39
2024/01/06 01:42:22;;;;;;;25.65;18.13;;;;;;;18.04;49.46;100217.78;5079128;28;20031;-39
2024/01/06 01:44:47;;;;;;;30.75;18.73;;;;;;;18.03;49.28;100224.88;5077683;28;20032;-39
2024/01/06 01:47:14;;;;;;;25.40;17.50;;;;;;;18.03;48.96;100229.31;5077767;28;20097;-39
2024/01/06 01:49:42;;;;;;;26.30;18.13;;;;;;;18.02;49.52;100224.94;5076862;28;20472;-39
2024/01/06 01:52:07;;;;;;;25.52;17.23;;;;;;;18.03;49.17;100231.94;5076829;28;20043;-40
2024/01/06 01:54:34;;;;;;;24.13;17.40;;;;;;;18.03;49.15;100226.66;5077268;28;20029;-39
2024/01/06 01:57:01;;;;;;;28.35;18.08;;;;;;;18.03;49.31;100231.94;5076603;28;20060;-41
2024/01/06 01:59:27;;;;;;;27.83;17.90;;;;;;;18.04;49.11;100238.94;5061011;28;20028;-39
2024/01/06 02:01:52;;;;;;;24.50;17.38;;;;;;;18.03;49.24;100237.25;5077155;28;20308;-39
2024/01/06 02:04:17;;;;;;;21.73;16.40;;;;;;;18.01;48.89;100234.66;5076617;28;20036;-38
2024/01/06 02:06:43;;;;;;;23.88;16.63;;;;;;;18.01;48.97;100241.75;5076308;28;20044;-38
2024/01/06 02:09:08;;;;;;;27.33;17.92;;;;;;;17.99;49.49;100240.97;5076287;28;20021;-40
2024/01/06 02:11:38;;;;;;;23.25;17.30;;;;;;;17.99;48.80;100246.25;5076217;28;20446;-38
2024/01/06 02:14:06;;;;;;;;;;;;;;;17.85;49.02;100245.19;5077482;28;20033;-41
2024/01/06 02:16:31;;;;;;;25.88;17.30;;;;;;;17.95;48.86;100250.00;5077241;28;20018;-39
2024/01/06 02:18:59;;;;;;;26.35;18.15;;;;;;;17.95;48.68;100256.13;5076947;28;20032;-39
2024/01/06 02:21:25;;;;;;;23.33;16.90;;;;;;;17.96;48.96;100254.34;5076910;28;20028;-39
2024/01/06 02:23:50;;;;;;;24.95;17.58;;;;;;;17.93;48.65;100248.28;5076704;28;20476;-38
2024/01/06 02:26:16;;;;;;;23.42;16.38;;;;;;;17.93;48.86;100258.88;5077670;28;20040;-39
2024/01/06 02:28:44;;;;;;;27.00;17.30;;;;;;;17.93;48.67;100258.00;5076948;28;20028;-39
2024/01/06 02:31:12;;;;;;;23.25;16.65;;;;;;;17.92;48.75;100254.50;5076025;28;20024;-40
2024/01/06 02:33:40;;;;;;;27.05;17.67;;;;;;;17.92;48.73;100251.84;5076863;28;20024;-40
2024/01/06 02:36:08;;;;;;;26.75;17.27;;;;;;;17.92;48.67;100253.66;5075829;28;20020;-39
2024/01/06 02:38:34;;;;;;;24.67;16.25;;;;;;;17.91;48.57;100255.44;5077469;28;20032;-39
2024/01/06 02:40:59;;;;;;;24.70;17.48;;;;;;;17.90;48.10;100264.31;5077425;28;20028;-40
2024/01/06 02:43:25;;;;;;;22.50;15.93;;;;;;;17.90;48.27;100274.03;5076502;28;20024;-39
2024/01/06 02:45:53;;;;;;;22.98;16.13;;;;;;;17.88;48.39;100266.16;5076762;28;20335;-39
2024/01/06 02:48:21;;;;;;;23.58;15.88;;;;;;;17.90;48.33;100277.53;5066930;28;20056;-41
2024/01/06 02:50:46;;;;;;;23.83;16.63;;;;;;;17.88;48.36;100266.16;5076679;28;20074;-41
2024/01/06 02:53:12;;;;;;;24.08;16.08;;;;;;;17.86;48.38;100270.72;5076484;28;20373;-41
2024/01/06 02:55:38;;;;;;;23.83;16.48;;;;;;;17.88;48.47;100270.59;5079078;28;20025;-43
2024/01/06 02:58:04;;;;;;;22.77;15.85;;;;;;;17.88;48.43;100273.25;5079610;28;20039;-43
2024/01/06 03:00:31;;;;;;;26.15;17.40;;;;;;;17.87;48.33;100267.13;5076518;28;20028;-39
2024/01/06 03:02:59;;;;;;;25.75;17.33;;;;;;;17.88;48.16;100273.25;5076133;28;20032;-41
2024/01/06 03:05:25;;;;;;;23.38;16.77;;;;;;;17.88;48.25;100265.31;5080524;28;20459;-41
2024/01/06 03:07:50;;;;;;;25.50;17.35;;;;;;;17.86;48.26;100268.06;5078131;28;20032;-39
2024/01/06 03:10:16;;;;;;;25.85;16.73;;;;;;;17.86;48.37;100273.34;5076462;28;20021;-40
2024/01/06 03:12:46;;;;;;;21.67;15.50;;;;;;;17.85;48.06;100276.91;5080427;28;20435;-39
2024/01/06 03:15:11;;;;;;;22.27;16.10;;;;;;;17.84;48.23;100280.50;5075974;28;20422;-42
2024/01/06 03:17:37;;;;;;;23.08;16.85;;;;;;;17.84;48.08;100280.50;5078250;28;20036;-40
2024/01/06 03:20:03;;;;;;;22.42;15.25;;;;;;;17.83;48.17;100284.06;5074790;28;20086;-39
2024/01/06 03:22:31;;;;;;;23.15;15.43;;;;;;;17.83;48.10;100284.06;5058625;28;20036;-39
2024/01/06 03:24:57;;;;;;;22.10;15.10;;;;;;;17.82;47.94;100278.88;5074919;28;20421;-40
2024/01/06 03:27:22;;;;;;;22.52;15.68;;;;;;;17.81;48.07;100280.63;5074877;28;20039;-39
2024/01/06 03:29:47;;;;;;;23.23;16.27;;;;;;;17.81;48.00;100279.78;5075694;28;20453;-39
2024/01/06 03:32:13;;;;;;;22.98;16.40;;;;;;;17.80;47.91;100280.69;5075632;28;20442;-40
2024/01/06 03:34:38;;;;;;;23.40;16.08;;;;;;;17.79;48.03;100287.75;5075412;28;20024;-41
2024/01/06 03:37:06;;;;;;;23.63;16.48;;;;;;;17.80;48.00;100294.78;5074680;28;20101;-39
2024/01/06 03:39:34;;;;;;;20.60;14.95;;;;;;;17.80;48.05;100297.41;5075591;28;20039;-40
2024/01/06 03:42:03;;;;;;;23.73;16.65;;;;;;;17.79;47.88;100298.34;5074334;28;20028;-39
2024/01/06 03:44:30;;;;;;;20.33;14.65;;;;;;;17.79;47.82;100298.34;5075314;28;20029;-40
2024/01/06 03:46:57;;;;;;;22.38;15.80;;;;;;;17.81;47.61;100306.22;5074347;28;20115;-40
2024/01/06 03:49:23;;;;;;;21.48;15.77;;;;;;;17.79;47.93;100300.97;5073702;28;20078;-41
2024/01/06 03:51:49;;;;;;;24.25;16.40;;;;;;;17.79;47.73;100308.91;5074472;28;20426;-40
2024/01/06 03:54:14;;;;;;;23.00;16.42;;;;;;;17.80;47.67;100301.84;5075034;28;20043;-39
2024/01/06 03:56:40;;;;;;;21.85;16.30;;;;;;;17.81;47.68;100304.44;5075271;28;20035;-39
2024/01/06 03:59:05;;;;;;;25.08;16.52;;;;;;;17.82;47.64;100311.47;5074980;28;20487;-38
2024/01/06 04:01:34;;;;;;;22.80;15.82;;;;;;;17.84;47.69;100311.34;5074008;28;20035;-40
2024/01/06 04:04:02;;;;;;;25.35;16.42;;;;;;;17.83;47.57;100310.50;5076038;28;20021;-40
2024/01/06 04:06:28;;;;;;;24.83;16.48;;;;;;;17.86;47.63;100314.78;5075684;28;20123;-38
2024/01/06 04:08:54;;;;;;;25.10;16.60;;;;;;;17.86;47.61;100315.66;5077506;28;20480;-40
2024/01/06 04:11:20;;;;;;;20.98;14.82;;;;;;;17.86;47.74;100318.31;5076243;28;20036;-39
2024/01/06 04:13:48;;;;;;;22.38;15.43;;;;;;;17.86;47.63;100318.31;5074429;28;20356;-40
2024/01/06 04:16:13;;;;;;;24.60;15.13;;;;;;;17.86;47.53;100318.31;5074847;28;20106;-40
2024/01/06 04:18:41;;;;;;;23.27;15.90;;;;;;;17.87;47.22;100327.09;5073812;28;20025;-40
2024/01/06 04:21:06;;;;;;;21.48;15.38;;;;;;;17.88;47.47;100334.06;5075757;28;20036;-40
2024/01/06 04:23:32;;;;;;;23.67;16.45;;;;;;;17.88;47.29;100323.50;5076830;28;20077;-40
2024/01/06 04:25:57;;;;;;;25.92;17.25;;;;;;;17.87;47.48;100335.03;5074713;28;20445;-39
2024/01/06 04:28:27;;;;;;;22.42;15.60;;;;;;;17.88;47.33;100337.56;5074757;28;20028;-39
2024/01/06 04:30:55;;;;;;;;;;;;;;;17.77;46.99;100341.66;5075910;28;20029;-40
2024/01/06 04:33:20;;;;;;;21.05;14.88;;;;;;;17.87;47.25;100345.59;5074767;28;19994;-39
2024/01/06 04:35:46;;;;;;;23.95;15.90;;;;;;;17.87;47.41;100340.31;5074662;28;20418;-39
2024/01/06 04:38:11;;;;;;;24.88;16.25;;;;;;;17.87;47.57;100337.66;5074539;28;20021;-39
2024/01/06 04:40:36;;;;;;;26.10;16.50;;;;;;;17.87;47.08;100343.81;5074443;28;20032;-39
2024/01/06 04:43:05;;;;;;;26.45;15.07;;;;;;;17.86;47.34;100347.41;5074139;28;20082;-39
2024/01/06 04:45:30;;;;;;;24.05;16.50;;;;;;;17.87;47.32;100349.09;5074570;28;20020;-38
2024/01/06 04:47:59;;;;;;;23.40;15.50;;;;;;;17.87;47.27;100350.91;5067293;28;20271;-39
2024/01/06 04:50:24;;;;;;;25.45;17.10;;;;;;;17.87;47.11;100346.44;5075788;28;20307;-39
2024/01/06 04:52:49;;;;;;;25.10;17.15;;;;;;;17.88;47.17;100353.44;5075792;28;20476;-39
2024/01/06 04:55:15;;;;;;;26.20;16.50;;;;;;;17.86;47.20;100352.69;5074659;28;20343;-39
2024/01/06 04:57:42;;;;;;;23.98;16.40;;;;;;;17.88;47.13;100361.38;5074659;28;20024;-38
2024/01/06 05:00:08;;;;;;;27.40;17.48;;;;;;;17.86;47.15;100372.97;5076283;28;20056;-40
2024/01/06 05:02:34;;;;;;;23.02;16.23;;;;;;;17.87;47.09;100370.25;5061059;28;20453;-41
2024/01/06 05:05:02;;;;;;;25.30;16.10;;;;;;;17.86;47.20;100368.56;5077659;28;20021;-39
2024/01/06 05:07:29;;;;;;;26.20;17.73;;;;;;;17.88;47.15;100365.81;5078788;28;20028;-39
2024/01/06 05:09:55;;;;;;;24.33;16.08;;;;;;;17.87;47.02;100364.13;5077960;28;20025;-39
2024/01/06 05:12:21;;;;;;;24.08;16.77;;;;;;;17.87;46.77;100364.97;5078820;28;20024;-39
2024/01/06 05:14:46;;;;;;;27.55;17.83;;;;;;;17.86;47.08;100363.25;5078628;28;20039;-39
2024/01/06 05:17:12;;;;;;;22.52;15.45;;;;;;;17.87;47.33;100362.31;5079609;28;20016;-39
2024/01/06 05:19:39;;;;;;;27.73;18.00;;;;;;;17.87;46.92;100370.25;5079488;28;20449;-40
2024/01/06 05:22:07;;;;;;;24.40;16.35;;;;;;;17.87;46.94;100367.63;5081398;28;20040;-38
2024/01/06 05:24:35;;;;;;;25.05;16.48;;;;;;;17.89;46.83;100378.13;5079608;28;20025;-39
2024/01/06 05:27:03;;;;;;;26.30;16.73;;;;;;;17.88;46.77;100381.69;5064513;28;20039;-40
2024/01/06 05:29:28;;;;;;;24.33;16.50;;;;;;;17.88;46.71;100381.69;5078690;28;20116;-40
2024/01/06 05:31:56;;;;;;;24.58;16.77;;;;;;;17.88;46.99;100376.41;5082666;28;20512;-39
2024/01/06 05:34:24;;;;;;;27.75;17.45;;;;;;;17.88;46.73;100379.03;5082576;28;20044;-39
2024/01/06 05:36:53;;;;;;;24.77;16.88;;;;;;;17.88;46.70;100381.69;5078705;28;20346;-40
2024/01/06 05:39:18;;;;;;;26.73;17.77;;;;;;;17.88;46.76;100374.59;5078620;28;20024;-45
2024/01/06 05:41:46;;;;;;;28.00;18.30;;;;;;;17.87;46.90;100383.47;5079761;28;20020;-41
2024/01/06 05:44:11;;;;;;;27.02;17.48;;;;;;;17.89;46.75;100384.25;5077725;28;20024;-40
2024/01/06 05:46:39;;;;;;;24.70;16.88;;;;;;;17.88;46.71;100392.25;5077109;28;20044;-40
2024/01/06 05:49:04;;;;;;;27.65;18.42;;;;;;;17.88;46.87;100403.69;5080706;28;20473;-40
2024/01/06 05:51:30;;;;;;;26.27;17.10;;;;;;;17.88;46.86;100402.84;5076984;28;20032;-40
2024/01/06 05:53:58;;;;;;;27.67;17.85;;;;;;;17.88;46.76;100408.97;5077790;28;20094;-39
2024/01/06 05:56:25;;;;;;;32.42;18.40;;;;;;;17.89;46.71;100410.72;5078079;28;20078;-40
2024/01/06 05:58:53;;;;;;;28.95;18.50;;;;;;;17.88;46.75;100408.97;5076558;28;20389;-38
2024/01/06 06:01:21;;;;;;;28.20;18.30;;;;;;;17.87;46.78;100412.56;5076927;28;20090;-40
2024/01/06 06:03:50;;;;;;;29.25;18.35;;;;;;;17.89;46.48;100412.50;5059996;28;20104;-41
2024/01/06 06:06:15;;;;;;;26.85;18.27;;;;;;;17.90;46.72;100416.84;5077331;28;20036;-39
2024/01/06 06:08:42;;;;;;;27.30;16.63;;;;;;;17.89;46.62;100421.28;5077351;28;20037;-39
2024/01/06 06:11:10;;;;;;;25.95;16.92;;;;;;;17.90;46.51;100416.84;5076840;28;20029;-39
2024/01/06 06:13:42;;;;;;;31.98;18.92;;;;;;;17.89;46.48;100431.03;5076433;28;20058;-40
2024/01/06 06:16:13;;;;;;;34.58;18.30;;;;;;;17.89;46.76;100431.88;5076408;28;20351;-39
2024/01/06 06:18:41;;;;;;;30.42;19.08;;;;;;;17.89;46.58;100442.44;5077303;28;20034;-40
2024/01/06 06:21:10;;;;;;;27.50;18.38;;;;;;;17.90;46.72;100444.16;5077053;28;20032;-39
2024/01/06 06:23:35;;;;;;;27.55;17.52;;;;;;;17.91;46.67;100456.47;5076544;28;20099;-38
2024/01/06 06:26:07;;;;;;;26.48;17.50;;;;;;;17.89;46.43;100463.59;5079243;28;20032;-39
2024/01/06 06:28:34;;;;;;;28.00;18.13;;;;;;;17.90;46.38;100470.59;5077092;28;20043;-41
2024/01/06 06:30:59;;;;;;;29.40;18.08;;;;;;;17.90;46.62;100478.53;5077180;28;20024;-41
2024/01/06 06:33:27;;;;;;;30.50;18.30;;;;;;;17.91;46.56;100482.03;5077026;28;20025;-41
2024/01/06 06:35:53;;;;;;;29.20;17.70;;;;;;;17.89;46.33;100479.47;5076470;28;20059;-40
2024/01/06 06:38:21;;;;;;;27.10;17.08;;;;;;;17.90;46.68;100477.69;5077386;28;20017;-40
2024/01/06 06:40:49;;;;;;;28.60;18.50;;;;;;;17.91;46.37;100482.03;5079548;28;20029;-40
2024/01/06 06:43:14;;;;;;;28.35;17.58;;;;;;;17.92;46.37;100486.41;5077147;28;20036;-40
2024/01/06 06:45:42;;;;;;;27.30;17.95;;;;;;;17.91;46.21;100485.56;5077991;28;20029;-41
2024/01/06 06:48:07;;;;;;;28.55;16.88;;;;;;;17.90;46.65;100490.91;5059342;28;20032;-40
2024/01/06 06:50:32;;;;;;;26.75;17.60;;;;;;;17.87;46.53;100499.00;5076031;28;20032;-41
2024/01/06 06:52:59;;;;;;;30.65;17.33;;;;;;;17.85;46.36;100506.13;5076731;28;20024;-40
2024/01/06 06:55:24;;;;;;;36.63;17.98;;;;;;;17.85;46.40;100509.63;5076663;28;20070;-42
2024/01/06 06:57:49;;;;;;;32.90;18.17;;;;;;;17.87;46.43;100523.66;5076580;28;20458;-39
2024/01/06 07:00:17;;;;;;;31.38;17.83;;;;;;;17.92;46.33;100526.94;5076646;28;20035;-39
2024/01/06 07:02:43;;;;;;;31.75;18.15;;;;;;;17.96;46.18;100525.00;5076512;28;20058;-40
2024/01/06 07:05:10;;;;;;;38.08;18.17;;;;;;;17.97;46.24;100523.22;5076348;28;20024;-40
2024/01/06 07:07:37;;;;;;;27.02;17.77;;;;;;;18.01;46.93;100536.22;5076475;28;20024;-39
2024/01/06 07:10:06;;;;;;;41.45;17.95;;;;;;;18.03;47.34;100544.09;5075987;28;20024;-39
2024/01/06 07:12:31;;;;;;;31.13;18.08;;;;;;;18.06;47.13;100549.22;5075698;28;20028;-40
2024/01/06 07:14:58;;;;;;;43.50;23.48;;;;;;;18.13;47.24;100548.00;5077424;28;20032;-40
2024/01/06 07:17:24;;;;;;;50.35;27.98;;;;;;;18.09;50.19;100546.44;5076727;28;20111;-41
2024/01/06 07:19:49;;;;;;;48.72;27.52;;;;;;;18.22;47.73;100546.72;5076148;28;20032;-40
2024/01/06 07:22:16;;;;;;;50.17;26.30;;;;;;;18.25;48.83;100544.75;5075967;28;20025;-41
2024/01/06 07:24:44;;;;;;;39.58;25.25;;;;;;;18.39;48.60;100545.91;5074697;28;20438;-39
2024/01/06 07:27:13;;;;;;;42.42;24.42;;;;;;;18.45;48.20;100545.56;5076051;28;20477;-39
2024/01/06 07:29:41;;;;;;;32.75;21.67;;;;;;;18.48;47.91;100548.09;5076000;28;20483;-39
2024/01/06 07:32:07;;;;;;;40.30;22.65;;;;;;;18.49;47.93;100557.72;5075176;28;20055;-40
2024/01/06 07:34:35;;;;;;;40.80;21.42;;;;;;;18.52;47.61;100568.19;5075663;28;20438;-40
2024/01/06 07:37:03;;;;;;;34.15;20.20;;;;;;;18.52;47.69;100574.34;5075421;28;20316;-39
2024/01/06 07:39:30;;;;;;;29.88;18.75;;;;;;;18.52;47.72;100576.13;5072767;28;20099;-39
2024/01/06 07:41:56;;;;;;;33.13;19.45;;;;;;;18.50;48.20;100580.66;5075751;28;20326;-39
2024/01/06 07:44:24;;;;;;;39.20;19.88;;;;;;;18.53;48.50;100575.19;5073478;28;20025;-39
2024/01/06 07:46:52;;;;;;;31.50;18.88;;;;;;;18.57;48.53;100574.13;5069042;28;20028;-40
2024/01/06 07:49:18;;;;;;;34.78;20.02;;;;;;;18.57;48.01;100582.06;5059726;28;20024;-37
2024/01/06 07:51:46;;;;;;;32.67;19.45;;;;;;;18.57;47.86;100590.00;5075761;28;20328;-39
2024/01/06 07:54:11;;;;;;;34.75;20.33;;;;;;;18.55;49.39;100595.38;5086296;28;20019;-40
2024/01/06 07:56:37;;;;;;;37.30;19.65;;;;;;;18.54;48.75;100593.66;5075561;28;20039;-40
2024/01/06 07:59:05;;;;;;;39.35;18.98;;;;;;;18.63;49.58;100596.78;5061895;28;20106;-41
2024/01/06 08:01:31;;;;;;;41.55;21.13;;;;;;;18.47;49.54;100607.25;5068405;28;20082;-42
2024/01/06 08:03:57;;;;;;;38.10;21.75;;;;;;;18.45;48.69;100617.03;5077188;28;20358;-40
2024/01/06 08:06:22;;;;;;;44.97;25.58;;;;;;;18.45;49.86;100614.41;5075154;28;20047;-39
2024/01/06 08:08:47;;;;;;;58.90;24.25;;;;;;;18.57;49.52;100619.13;5081027;28;20028;-39
2024/01/06 08:11:13;;;;;;;37.95;21.48;;;;;;;18.61;49.98;100620.66;5074898;28;20346;-38
2024/01/06 08:13:38;;;;;;;45.15;22.45;;;;;;;18.61;49.61;100628.63;5074827;28;20040;-39
2024/01/06 08:16:06;;;;;;;35.08;18.83;;;;;;;18.61;49.63;100628.63;5057157;28;20078;-37
2024/01/06 08:18:34;;;;;;;34.25;20.45;;;;;;;18.64;50.17;100631.13;5074676;28;20033;-38
2024/01/06 08:20:59;;;;;;;37.65;20.88;;;;;;;18.64;49.92;100625.00;5076729;28;20028;-38
2024/01/06 08:23:25;;;;;;;42.10;19.98;;;;;;;18.67;50.33;100633.63;5073841;28;20025;-39
2024/01/06 08:25:51;;;;;;;37.00;20.33;;;;;;;18.68;50.91;100630.06;5074874;28;20016;-39
2024/01/06 08:28:18;;;;;;;43.28;21.70;;;;;;;18.68;50.87;100640.66;5074551;28;20047;-37
2024/01/06 08:30:44;;;;;;;49.00;19.45;;;;;;;18.80;51.05;100646.28;5079323;28;20493;-38
2024/01/06 08:33:11;;;;;;;43.45;18.45;;;;;;;18.76;51.24;100646.44;5074387;28;20024;-39
2024/01/06 08:35:40;;;;;;;37.65;18.60;;;;;;;18.76;50.62;100654.41;5073261;28;20024;-40
2024/01/06 08:38:06;;;;;;;45.47;18.70;;;;;;;18.77;50.85;100650.81;5074500;28;20024;-39
2024/01/06 08:40:34;;;;;;;48.10;18.38;;;;;;;18.76;50.78;100650.88;5074889;28;20020;-39
2024/01/06 08:43:00;;;;;;;48.42;19.35;;;;;;;18.73;50.72;100658.94;5076355;28;20028;-38
2024/01/06 08:45:26;;;;;;;39.88;17.80;;;;;;;18.72;50.82;100666.03;5079064;28;20040;-39
2024/01/06 08:47:52;;;;;;;38.25;18.70;;;;;;;18.70;50.65;100670.53;5075823;28;20021;-40
2024/01/06 08:50:17;;;;;;;30.50;17.05;;;;;;;18.69;50.59;100682.09;5077231;28;20422;-40
2024/01/06 08:52:42;;;;;;;32.33;17.17;;;;;;;18.70;50.49;100670.53;5080115;28;20029;-39
2024/01/06 08:55:08;;;;;;;34.88;16.42;;;;;;;18.70;50.61;100675.00;5076351;28;20020;-39
2024/01/06 08:57:36;;;;;;;35.30;17.73;;;;;;;18.69;50.67;100682.09;5076834;28;20107;-38
2024/01/06 09:00:05;;;;;;;28.42;16.30;;;;;;;18.70;50.92;100691.72;5078594;28;20112;-40
2024/01/06 09:02:31;;;;;;;35.05;16.73;;;;;;;18.71;50.77;100695.25;5074525;28;20025;-39
2024/01/06 09:05:00;;;;;;;31.77;17.65;;;;;;;18.71;50.86;100695.25;5074145;28;20457;-39
2024/01/06 09:07:28;;;;;;;31.08;16.48;;;;;;;18.69;50.91;100702.41;5073368;28;20489;-38
2024/01/06 09:09:56;;;;;;;28.88;16.25;;;;;;;18.71;51.61;100712.00;5073411;28;20032;-41
2024/01/06 09:12:22;;;;;;;37.03;17.13;;;;;;;18.68;51.06;100717.47;5074055;28;20032;-40
2024/01/06 09:14:49;;;;;;;37.47;16.77;;;;;;;18.68;51.03;100711.28;5074279;28;20024;-39
2024/01/06 09:17:14;;;;;;;33.17;14.82;;;;;;;18.66;50.95;100706.06;5074177;28;20556;-40
2024/01/06 09:19:40;;;;;;;26.95;17.15;;;;;;;18.68;51.19;100717.47;5074239;28;20028;-38
2024/01/06 09:22:07;;;;;;;29.70;16.42;;;;;;;18.72;50.82;100723.44;5072635;28;20021;-39
2024/01/06 09:24:33;;;;;;;37.30;16.10;;;;;;;18.79;51.50;100724.91;5076092;28;20028;-44
2024/01/06 09:26:59;;;;;;;36.85;16.95;;;;;;;18.84;51.43;100725.53;5074082;28;20089;-41
2024/01/06 09:29:24;;;;;;;37.03;15.75;;;;;;;18.88;51.40;100728.91;5072977;28;20044;-39
2024/01/06 09:31:49;;;;;;;36.65;15.77;;;;;;;18.89;51.28;100736.75;5077000;28;20025;-46
2024/01/06 09:34:15;;;;;;;32.95;16.52;;;;;;;18.89;51.57;100742.06;5073773;28;20021;-41
2024/01/06 09:36:40;;;;;;;28.38;15.38;;;;;;;18.91;51.88;100740.19;5074112;28;20021;-40
2024/01/06 09:39:07;;;;;;;35.58;16.40;;;;;;;18.92;52.08;100735.78;5075510;28;20025;-38
2024/01/06 09:41:33;;;;;;;31.88;13.90;;;;;;;18.88;51.82;100744.81;5074180;28;20055;-38
2024/01/06 09:44:01;;;;;;;35.28;14.98;;;;;;;18.82;51.87;100750.38;5056062;28;20037;-40
2024/01/06 09:46:29;;;;;;;35.40;15.05;;;;;;;18.75;51.94;100745.38;5074257;28;20032;-38
2024/01/06 09:48:58;;;;;;;38.35;15.00;;;;;;;18.74;51.99;100751.56;5076677;28;20040;-39
2024/01/06 09:51:23;;;;;;;37.35;16.63;;;;;;;18.72;52.56;100750.78;5077507;28;20032;-39
2024/01/06 09:53:51;;;;;;;38.42;15.18;;;;;;;18.79;53.10;100753.19;5076844;28;20032;-41
2024/01/06 09:56:17;;;;;;;38.67;16.92;;;;;;;18.86;53.01;100758.13;5076561;28;20028;-54
2024/01/06 09:58:43;;;;;;;43.17;15.82;;;;;;;18.87;53.04;100765.16;5077538;28;20035;-38
2024/01/06 10:01:09;;;;;;;38.03;23.10;;;;;;;17.82;48.40;100774.25;5059941;28;20468;-39
2024/01/06 10:03:38;;;;;;;33.50;23.38;;;;;;;16.62;45.16;100772.84;5077256;28;20020;-39
2024/01/06 10:06:04;;;;;;;38.85;23.75;;;;;;;16.00;44.74;100774.25;5078109;28;20028;-39
2024/01/06 10:08:33;;;;;;;47.53;23.25;;;;;;;16.88;48.23;100779.81;5075455;28;20028;-38
2024/01/06 10:11:02;;;;;;;38.28;20.33;;;;;;;17.39;48.95;100775.16;5078481;28;20024;-39
